sensor_id;sensor_type;location;lat;lon;timestamp;temperature;humidity
18876;DHT22;9570;50.854;13.778;2022-07-23T00:01:33;18.10;99.90
18876;DHT22;9570;50.854;13.778;2022-07-23T00:04:00;18.20;99.90
18876;DHT22;9570;50.854;13.778;2022-07-23T00:06:25;18.20;99.90
18876;DHT22;9570;50.854;13.778;2022-07-23T00:08:51;18.20;99.90
18876;DHT22;9570;50.854;13.778;2022-07-23T00:11:17;18.20;99.90
18876;DHT22;9570;50.854;13.778;2022-07-23T00:13:43;18.20;99.90
18876;DHT22;9570;50.854;13.778;2022-07-23T00:16:09;18.20;99.90
18876;DHT22;9570;50.854;13.778;2022-07-23T00:18:34;18.10;99.90
18876;DHT22;9570;50.854;13.778;2022-07-23T00:21:00;18.00;99.90
18876;DHT22;9570;50.854;13.778;2022-07-23T00:23:25;18.00;99.90
18876;DHT22;9570;50.854;13.778;2022-07-23T00:25:52;18.00;99.90
18876;DHT22;9570;50.854;13.778;2022-07-23T00:28:18;18.10;99.90
18876;DHT22;9570;50.854;13.778;2022-07-23T00:30:44;18.00;99.90
18876;DHT22;9570;50.854;13.778;2022-07-23T00:33:09;18.10;99.90
18876;DHT22;9570;50.854;13.778;2022-07-23T00:35:39;18.00;99.90
18876;DHT22;9570;50.854;13.778;2022-07-23T00:38:09;17.90;99.90
18876;DHT22;9570;50.854;13.778;2022-07-23T00:40:35;17.90;99.90
18876;DHT22;9570;50.854;13.778;2022-07-23T00:43:01;17.80;99.90
18876;DHT22;9570;50.854;13.778;2022-07-23T00:45:28;17.90;99.90
18876;DHT22;9570;50.854;13.778;2022-07-23T00:47:53;17.80;99.90
18876;DHT22;9570;50.854;13.778;2022-07-23T00:50:19;17.80;99.90
18876;DHT22;9570;50.854;13.778;2022-07-23T00:52:45;17.80;99.90
18876;DHT22;9570;50.854;13.778;2022-07-23T00:55:11;17.90;99.90
18876;DHT22;9570;50.854;13.778;2022-07-23T00:57:38;17.80;99.90
18876;DHT22;9570;50.854;13.778;2022-07-23T01:00:06;17.80;99.90
18876;DHT22;9570;50.854;13.778;2022-07-23T01:02:32;17.70;99.90
18876;DHT22;9570;50.854;13.778;2022-07-23T01:04:58;17.70;99.90
18876;DHT22;9570;50.854;13.778;2022-07-23T01:07:23;17.70;99.90
18876;DHT22;9570;50.854;13.778;2022-07-23T01:09:51;17.70;99.90
18876;DHT22;9570;50.854;13.778;2022-07-23T01:12:17;17.70;99.90
18876;DHT22;9570;50.854;13.778;2022-07-23T01:14:42;17.70;99.90
18876;DHT22;9570;50.854;13.778;2022-07-23T01:17:07;17.70;99.90
18876;DHT22;9570;50.854;13.778;2022-07-23T01:19:33;17.70;99.90
18876;DHT22;9570;50.854;13.778;2022-07-23T01:22:01;17.70;99.90
18876;DHT22;9570;50.854;13.778;2022-07-23T01:24:27;17.80;99.90
18876;DHT22;9570;50.854;13.778;2022-07-23T01:26:52;17.80;99.90
18876;DHT22;9570;50.854;13.778;2022-07-23T01:29:18;17.70;99.90
18876;DHT22;9570;50.854;13.778;2022-07-23T01:31:44;17.70;99.90
18876;DHT22;9570;50.854;13.778;2022-07-23T01:34:10;17.70;99.90
18876;DHT22;9570;50.854;13.778;2022-07-23T01:36:36;17.70;99.90
18876;DHT22;9570;50.854;13.778;2022-07-23T01:39:03;17.60;99.90
18876;DHT22;9570;50.854;13.778;2022-07-23T01:41:29;17.70;99.90
18876;DHT22;9570;50.854;13.778;2022-07-23T01:43:55;17.70;99.90
18876;DHT22;9570;50.854;13.778;2022-07-23T01:46:21;17.70;99.90
18876;DHT22;9570;50.854;13.778;2022-07-23T01:48:46;17.70;99.90
18876;DHT22;9570;50.854;13.778;2022-07-23T01:51:12;17.60;99.90
18876;DHT22;9570;50.854;13.778;2022-07-23T01:53:37;17.50;99.90
18876;DHT22;9570;50.854;13.778;2022-07-23T01:56:03;17.50;99.90
18876;DHT22;9570;50.854;13.778;2022-07-23T01:58:29;17.50;99.90
18876;DHT22;9570;50.854;13.778;2022-07-23T02:00:55;17.40;99.90
18876;DHT22;9570;50.854;13.778;2022-07-23T02:03:21;17.40;99.90
18876;DHT22;9570;50.854;13.778;2022-07-23T02:05:46;17.30;99.90
18876;DHT22;9570;50.854;13.778;2022-07-23T02:08:12;17.30;99.90
18876;DHT22;9570;50.854;13.778;2022-07-23T02:10:37;17.30;99.90
18876;DHT22;9570;50.854;13.778;2022-07-23T02:13:03;17.20;99.90
18876;DHT22;9570;50.854;13.778;2022-07-23T02:15:28;17.20;99.90
18876;DHT22;9570;50.854;13.778;2022-07-23T02:17:54;17.20;99.90
18876;DHT22;9570;50.854;13.778;2022-07-23T02:20:20;17.20;99.90
18876;DHT22;9570;50.854;13.778;2022-07-23T02:22:45;17.20;99.90
18876;DHT22;9570;50.854;13.778;2022-07-23T02:25:11;17.20;99.90
18876;DHT22;9570;50.854;13.778;2022-07-23T02:27:37;17.20;99.90
18876;DHT22;9570;50.854;13.778;2022-07-23T02:30:03;17.20;99.90
18876;DHT22;9570;50.854;13.778;2022-07-23T02:32:29;17.20;99.90
18876;DHT22;9570;50.854;13.778;2022-07-23T02:34:54;17.20;99.90
18876;DHT22;9570;50.854;13.778;2022-07-23T02:37:20;17.10;99.90
18876;DHT22;9570;50.854;13.778;2022-07-23T02:39:45;17.10;99.90
18876;DHT22;9570;50.854;13.778;2022-07-23T02:42:11;17.10;99.90
18876;DHT22;9570;50.854;13.778;2022-07-23T02:44:36;17.20;99.90
18876;DHT22;9570;50.854;13.778;2022-07-23T02:47:02;17.20;99.90
18876;DHT22;9570;50.854;13.778;2022-07-23T02:49:27;17.20;99.90
18876;DHT22;9570;50.854;13.778;2022-07-23T02:51:53;17.30;99.90
18876;DHT22;9570;50.854;13.778;2022-07-23T02:54:18;17.30;99.90
18876;DHT22;9570;50.854;13.778;2022-07-23T02:56:44;17.30;99.90
18876;DHT22;9570;50.854;13.778;2022-07-23T02:59:09;17.20;99.90
18876;DHT22;9570;50.854;13.778;2022-07-23T03:01:36;17.30;99.90
18876;DHT22;9570;50.854;13.778;2022-07-23T03:04:01;17.30;99.90
18876;DHT22;9570;50.854;13.778;2022-07-23T03:06:27;17.30;99.90
18876;DHT22;9570;50.854;13.778;2022-07-23T03:08:52;17.30;99.90
18876;DHT22;9570;50.854;13.778;2022-07-23T03:11:18;17.40;99.90
18876;DHT22;9570;50.854;13.778;2022-07-23T03:13:43;17.40;99.90
18876;DHT22;9570;50.854;13.778;2022-07-23T03:16:09;17.50;99.90
18876;DHT22;9570;50.854;13.778;2022-07-23T03:18:34;17.50;99.90
18876;DHT22;9570;50.854;13.778;2022-07-23T03:21:00;17.50;99.90
18876;DHT22;9570;50.854;13.778;2022-07-23T03:23:26;17.50;99.90
18876;DHT22;9570;50.854;13.778;2022-07-23T03:25:51;17.50;99.90
18876;DHT22;9570;50.854;13.778;2022-07-23T03:28:18;17.60;99.90
18876;DHT22;9570;50.854;13.778;2022-07-23T03:30:44;17.60;99.90
18876;DHT22;9570;50.854;13.778;2022-07-23T03:33:12;17.60;99.90
18876;DHT22;9570;50.854;13.778;2022-07-23T03:35:37;17.60;99.90
18876;DHT22;9570;50.854;13.778;2022-07-23T03:38:03;17.60;99.90
18876;DHT22;9570;50.854;13.778;2022-07-23T03:40:28;17.60;99.90
18876;DHT22;9570;50.854;13.778;2022-07-23T03:42:54;17.70;99.90
18876;DHT22;9570;50.854;13.778;2022-07-23T03:45:19;17.70;99.90
18876;DHT22;9570;50.854;13.778;2022-07-23T03:47:44;17.80;99.90
18876;DHT22;9570;50.854;13.778;2022-07-23T03:50:10;17.70;99.90
18876;DHT22;9570;50.854;13.778;2022-07-23T03:52:36;17.80;99.90
18876;DHT22;9570;50.854;13.778;2022-07-23T03:55:02;17.80;99.90
18876;DHT22;9570;50.854;13.778;2022-07-23T03:57:28;17.80;99.90
18876;DHT22;9570;50.854;13.778;2022-07-23T03:59:54;17.80;99.90
18876;DHT22;9570;50.854;13.778;2022-07-23T04:02:19;17.80;99.90
18876;DHT22;9570;50.854;13.778;2022-07-23T04:04:45;17.70;99.90
18876;DHT22;9570;50.854;13.778;2022-07-23T04:07:10;17.70;99.90
18876;DHT22;9570;50.854;13.778;2022-07-23T04:09:36;17.80;99.90
18876;DHT22;9570;50.854;13.778;2022-07-23T04:12:01;17.80;99.90
18876;DHT22;9570;50.854;13.778;2022-07-23T04:14:27;17.90;99.90
18876;DHT22;9570;50.854;13.778;2022-07-23T04:16:52;17.90;99.90
18876;DHT22;9570;50.854;13.778;2022-07-23T04:19:18;17.80;99.90
18876;DHT22;9570;50.854;13.778;2022-07-23T04:21:43;17.90;99.90
18876;DHT22;9570;50.854;13.778;2022-07-23T04:24:09;17.90;99.90
18876;DHT22;9570;50.854;13.778;2022-07-23T04:26:34;17.80;99.90
18876;DHT22;9570;50.854;13.778;2022-07-23T04:28:59;17.80;99.90
18876;DHT22;9570;50.854;13.778;2022-07-23T04:31:25;17.90;99.90
18876;DHT22;9570;50.854;13.778;2022-07-23T04:33:50;18.00;99.90
18876;DHT22;9570;50.854;13.778;2022-07-23T04:36:16;18.20;99.90
18876;DHT22;9570;50.854;13.778;2022-07-23T04:38:41;18.30;99.90
18876;DHT22;9570;50.854;13.778;2022-07-23T04:41:07;18.40;99.90
18876;DHT22;9570;50.854;13.778;2022-07-23T04:43:32;18.50;99.90
18876;DHT22;9570;50.854;13.778;2022-07-23T04:45:58;18.60;99.90
18876;DHT22;9570;50.854;13.778;2022-07-23T04:48:23;18.70;99.90
18876;DHT22;9570;50.854;13.778;2022-07-23T04:50:49;18.70;99.90
18876;DHT22;9570;50.854;13.778;2022-07-23T04:53:14;18.80;99.90
18876;DHT22;9570;50.854;13.778;2022-07-23T04:55:40;18.80;99.90
18876;DHT22;9570;50.854;13.778;2022-07-23T04:58:06;18.80;99.90
18876;DHT22;9570;50.854;13.778;2022-07-23T05:00:31;18.80;99.90
18876;DHT22;9570;50.854;13.778;2022-07-23T05:02:57;18.90;99.90
18876;DHT22;9570;50.854;13.778;2022-07-23T05:05:22;18.90;99.90
18876;DHT22;9570;50.854;13.778;2022-07-23T05:07:48;18.90;99.90
18876;DHT22;9570;50.854;13.778;2022-07-23T05:10:13;19.00;99.90
18876;DHT22;9570;50.854;13.778;2022-07-23T05:12:38;19.00;99.90
18876;DHT22;9570;50.854;13.778;2022-07-23T05:15:04;18.90;99.90
18876;DHT22;9570;50.854;13.778;2022-07-23T05:17:30;18.90;99.90
18876;DHT22;9570;50.854;13.778;2022-07-23T05:19:55;19.00;99.90
18876;DHT22;9570;50.854;13.778;2022-07-23T05:22:21;19.10;99.90
18876;DHT22;9570;50.854;13.778;2022-07-23T05:24:46;19.20;99.90
18876;DHT22;9570;50.854;13.778;2022-07-23T05:27:12;19.40;99.90
18876;DHT22;9570;50.854;13.778;2022-07-23T05:29:37;19.40;99.90
18876;DHT22;9570;50.854;13.778;2022-07-23T05:32:03;19.60;99.90
18876;DHT22;9570;50.854;13.778;2022-07-23T05:34:28;19.70;99.90
18876;DHT22;9570;50.854;13.778;2022-07-23T05:36:54;19.80;99.90
18876;DHT22;9570;50.854;13.778;2022-07-23T05:39:19;19.80;99.90
18876;DHT22;9570;50.854;13.778;2022-07-23T05:41:45;19.90;99.90
18876;DHT22;9570;50.854;13.778;2022-07-23T05:44:10;19.90;99.90
18876;DHT22;9570;50.854;13.778;2022-07-23T05:46:36;20.00;99.90
18876;DHT22;9570;50.854;13.778;2022-07-23T05:49:01;19.90;99.90
18876;DHT22;9570;50.854;13.778;2022-07-23T05:51:27;19.80;99.90
18876;DHT22;9570;50.854;13.778;2022-07-23T05:53:52;19.60;99.90
18876;DHT22;9570;50.854;13.778;2022-07-23T05:56:18;19.50;99.90
18876;DHT22;9570;50.854;13.778;2022-07-23T05:58:44;19.60;99.90
18876;DHT22;9570;50.854;13.778;2022-07-23T06:01:10;19.60;99.90
18876;DHT22;9570;50.854;13.778;2022-07-23T06:03:37;19.70;99.90
18876;DHT22;9570;50.854;13.778;2022-07-23T06:06:03;19.70;99.90
18876;DHT22;9570;50.854;13.778;2022-07-23T06:08:29;19.60;99.90
18876;DHT22;9570;50.854;13.778;2022-07-23T06:10:54;19.50;99.90
18876;DHT22;9570;50.854;13.778;2022-07-23T06:13:19;19.50;99.90
18876;DHT22;9570;50.854;13.778;2022-07-23T06:15:45;19.50;99.90
18876;DHT22;9570;50.854;13.778;2022-07-23T06:18:11;19.60;99.90
18876;DHT22;9570;50.854;13.778;2022-07-23T06:20:36;19.60;99.90
18876;DHT22;9570;50.854;13.778;2022-07-23T06:23:02;19.60;99.90
18876;DHT22;9570;50.854;13.778;2022-07-23T06:25:27;19.70;99.90
18876;DHT22;9570;50.854;13.778;2022-07-23T06:27:53;19.60;99.90
18876;DHT22;9570;50.854;13.778;2022-07-23T06:30:18;19.60;99.90
18876;DHT22;9570;50.854;13.778;2022-07-23T06:32:45;19.50;99.90
18876;DHT22;9570;50.854;13.778;2022-07-23T06:35:11;19.50;99.90
18876;DHT22;9570;50.854;13.778;2022-07-23T06:37:36;19.60;99.90
18876;DHT22;9570;50.854;13.778;2022-07-23T06:40:02;19.70;99.90
18876;DHT22;9570;50.854;13.778;2022-07-23T06:42:28;19.70;99.90
18876;DHT22;9570;50.854;13.778;2022-07-23T06:44:54;19.60;99.90
18876;DHT22;9570;50.854;13.778;2022-07-23T06:47:19;19.50;99.90
18876;DHT22;9570;50.854;13.778;2022-07-23T06:49:44;19.50;99.90
18876;DHT22;9570;50.854;13.778;2022-07-23T06:52:10;19.60;99.90
18876;DHT22;9570;50.854;13.778;2022-07-23T06:54:35;19.70;99.90
18876;DHT22;9570;50.854;13.778;2022-07-23T06:57:01;19.80;99.90
18876;DHT22;9570;50.854;13.778;2022-07-23T06:59:26;19.80;99.90
18876;DHT22;9570;50.854;13.778;2022-07-23T07:01:52;19.70;99.90
18876;DHT22;9570;50.854;13.778;2022-07-23T07:04:17;19.60;99.90
18876;DHT22;9570;50.854;13.778;2022-07-23T07:06:43;19.60;99.90
18876;DHT22;9570;50.854;13.778;2022-07-23T07:09:08;19.60;99.90
18876;DHT22;9570;50.854;13.778;2022-07-23T07:11:34;19.50;99.90
18876;DHT22;9570;50.854;13.778;2022-07-23T07:14:00;19.40;99.90
18876;DHT22;9570;50.854;13.778;2022-07-23T07:16:25;19.10;99.90
18876;DHT22;9570;50.854;13.778;2022-07-23T07:18:51;19.20;99.90
18876;DHT22;9570;50.854;13.778;2022-07-23T07:21:16;19.20;99.90
18876;DHT22;9570;50.854;13.778;2022-07-23T07:23:42;19.30;99.90
18876;DHT22;9570;50.854;13.778;2022-07-23T07:26:07;19.30;99.90
18876;DHT22;9570;50.854;13.778;2022-07-23T07:28:33;19.40;99.90
18876;DHT22;9570;50.854;13.778;2022-07-23T07:30:58;19.40;99.90
18876;DHT22;9570;50.854;13.778;2022-07-23T07:33:24;19.40;99.90
18876;DHT22;9570;50.854;13.778;2022-07-23T07:35:49;19.50;99.90
18876;DHT22;9570;50.854;13.778;2022-07-23T07:38:15;19.70;99.90
18876;DHT22;9570;50.854;13.778;2022-07-23T07:40:40;19.90;99.90
18876;DHT22;9570;50.854;13.778;2022-07-23T07:43:06;20.00;99.90
18876;DHT22;9570;50.854;13.778;2022-07-23T07:45:31;20.20;99.90
18876;DHT22;9570;50.854;13.778;2022-07-23T07:47:57;20.50;99.90
18876;DHT22;9570;50.854;13.778;2022-07-23T07:50:23;20.90;99.90
18876;DHT22;9570;50.854;13.778;2022-07-23T07:52:48;21.00;99.90
18876;DHT22;9570;50.854;13.778;2022-07-23T07:55:14;21.20;99.90
18876;DHT22;9570;50.854;13.778;2022-07-23T07:57:41;21.50;99.90
18876;DHT22;9570;50.854;13.778;2022-07-23T08:00:08;21.60;99.90
18876;DHT22;9570;50.854;13.778;2022-07-23T08:02:53;22.00;99.90
18876;DHT22;9570;50.854;13.778;2022-07-23T08:05:21;22.40;99.90
18876;DHT22;9570;50.854;13.778;2022-07-23T08:07:46;22.90;99.90
18876;DHT22;9570;50.854;13.778;2022-07-23T08:10:12;23.00;99.90
18876;DHT22;9570;50.854;13.778;2022-07-23T08:12:39;22.70;99.90
18876;DHT22;9570;50.854;13.778;2022-07-23T08:15:07;22.50;99.90
18876;DHT22;9570;50.854;13.778;2022-07-23T08:17:32;22.90;99.90
18876;DHT22;9570;50.854;13.778;2022-07-23T08:19:59;22.80;99.90
18876;DHT22;9570;50.854;13.778;2022-07-23T08:22:24;22.50;99.90
18876;DHT22;9570;50.854;13.778;2022-07-23T08:24:50;22.70;99.90
18876;DHT22;9570;50.854;13.778;2022-07-23T08:27:15;22.90;99.90
18876;DHT22;9570;50.854;13.778;2022-07-23T08:29:41;23.10;99.90
18876;DHT22;9570;50.854;13.778;2022-07-23T08:32:06;23.50;99.90
18876;DHT22;9570;50.854;13.778;2022-07-23T08:34:31;23.80;99.90
18876;DHT22;9570;50.854;13.778;2022-07-23T08:36:57;23.90;99.90
18876;DHT22;9570;50.854;13.778;2022-07-23T08:39:22;24.00;99.90
18876;DHT22;9570;50.854;13.778;2022-07-23T08:41:48;23.90;99.90
18876;DHT22;9570;50.854;13.778;2022-07-23T08:44:16;24.10;99.90
18876;DHT22;9570;50.854;13.778;2022-07-23T08:46:43;24.50;99.90
18876;DHT22;9570;50.854;13.778;2022-07-23T08:49:08;25.00;99.90
18876;DHT22;9570;50.854;13.778;2022-07-23T08:51:34;25.20;99.90
18876;DHT22;9570;50.854;13.778;2022-07-23T08:54:00;25.00;99.90
18876;DHT22;9570;50.854;13.778;2022-07-23T08:56:25;25.50;99.90
18876;DHT22;9570;50.854;13.778;2022-07-23T08:58:53;26.10;99.90
18876;DHT22;9570;50.854;13.778;2022-07-23T09:01:19;26.10;99.90
18876;DHT22;9570;50.854;13.778;2022-07-23T09:03:44;26.20;99.90
18876;DHT22;9570;50.854;13.778;2022-07-23T09:06:10;26.00;99.90
18876;DHT22;9570;50.854;13.778;2022-07-23T09:08:40;26.30;99.90
18876;DHT22;9570;50.854;13.778;2022-07-23T09:11:11;26.60;99.90
18876;DHT22;9570;50.854;13.778;2022-07-23T09:13:54;26.10;99.90
18876;DHT22;9570;50.854;13.778;2022-07-23T09:16:24;25.80;99.90
18876;DHT22;9570;50.854;13.778;2022-07-23T09:18:55;25.70;99.90
18876;DHT22;9570;50.854;13.778;2022-07-23T09:21:34;25.50;99.90
18876;DHT22;9570;50.854;13.778;2022-07-23T09:24:04;25.70;99.90
18876;DHT22;9570;50.854;13.778;2022-07-23T09:26:33;26.20;99.90
18876;DHT22;9570;50.854;13.778;2022-07-23T09:31:43;25.80;99.90
18876;DHT22;9570;50.854;13.778;2022-07-23T09:34:11;25.70;99.90
18876;DHT22;9570;50.854;13.778;2022-07-23T09:36:36;25.70;99.90
18876;DHT22;9570;50.854;13.778;2022-07-23T09:39:02;25.90;99.90
18876;DHT22;9570;50.854;13.778;2022-07-23T09:41:41;26.20;99.90
18876;DHT22;9570;50.854;13.778;2022-07-23T09:44:08;26.50;99.90
18876;DHT22;9570;50.854;13.778;2022-07-23T09:46:35;26.70;99.90
18876;DHT22;9570;50.854;13.778;2022-07-23T09:49:10;26.60;99.90
18876;DHT22;9570;50.854;13.778;2022-07-23T09:51:52;26.40;99.90
18876;DHT22;9570;50.854;13.778;2022-07-23T09:54:33;26.10;99.90
18876;DHT22;9570;50.854;13.778;2022-07-23T09:59:34;25.50;99.90
18876;DHT22;9570;50.854;13.778;2022-07-23T10:02:00;25.40;99.90
18876;DHT22;9570;50.854;13.778;2022-07-23T10:04:30;25.40;99.90
18876;DHT22;9570;50.854;13.778;2022-07-23T10:06:58;25.30;99.90
18876;DHT22;9570;50.854;13.778;2022-07-23T10:09:34;25.20;99.90
18876;DHT22;9570;50.854;13.778;2022-07-23T10:12:03;25.20;99.90
18876;DHT22;9570;50.854;13.778;2022-07-23T10:14:34;25.30;99.90
18876;DHT22;9570;50.854;13.778;2022-07-23T10:17:02;25.60;99.90
18876;DHT22;9570;50.854;13.778;2022-07-23T10:19:28;25.60;99.90
18876;DHT22;9570;50.854;13.778;2022-07-23T10:22:02;25.60;99.90
18876;DHT22;9570;50.854;13.778;2022-07-23T10:24:53;25.70;99.90
18876;DHT22;9570;50.854;13.778;2022-07-23T10:27:42;25.90;99.90
18876;DHT22;9570;50.854;13.778;2022-07-23T10:33:26;26.10;99.90
18876;DHT22;9570;50.854;13.778;2022-07-23T10:36:18;26.00;99.90
18876;DHT22;9570;50.854;13.778;2022-07-23T10:39:04;25.90;99.90
18876;DHT22;9570;50.854;13.778;2022-07-23T10:41:36;25.80;99.90
18876;DHT22;9570;50.854;13.778;2022-07-23T10:44:13;25.90;99.90
18876;DHT22;9570;50.854;13.778;2022-07-23T10:47:00;25.90;99.90
18876;DHT22;9570;50.854;13.778;2022-07-23T10:49:33;26.00;99.90
18876;DHT22;9570;50.854;13.778;2022-07-23T10:57:09;25.90;99.90
18876;DHT22;9570;50.854;13.778;2022-07-23T11:02:28;26.10;99.90
18876;DHT22;9570;50.854;13.778;2022-07-23T11:04:54;26.10;99.90
18876;DHT22;9570;50.854;13.778;2022-07-23T11:07:24;26.00;99.90
18876;DHT22;9570;50.854;13.778;2022-07-23T11:09:49;25.80;99.90
18876;DHT22;9570;50.854;13.778;2022-07-23T11:22:47;25.50;99.90
18876;DHT22;9570;50.854;13.778;2022-07-23T11:25:31;25.50;99.90
18876;DHT22;9570;50.854;13.778;2022-07-23T11:28:17;25.70;99.90
18876;DHT22;9570;50.854;13.778;2022-07-23T11:30:46;25.70;99.90
18876;DHT22;9570;50.854;13.778;2022-07-23T11:35:43;26.10;99.90
18876;DHT22;9570;50.854;13.778;2022-07-23T11:40:49;26.10;99.90
18876;DHT22;9570;50.854;13.778;2022-07-23T11:43:15;26.00;99.90
18876;DHT22;9570;50.854;13.778;2022-07-23T11:45:43;26.00;99.90
18876;DHT22;9570;50.854;13.778;2022-07-23T11:48:22;25.90;99.90
18876;DHT22;9570;50.854;13.778;2022-07-23T11:50:48;25.90;99.90
18876;DHT22;9570;50.854;13.778;2022-07-23T11:53:28;26.00;99.90
18876;DHT22;9570;50.854;13.778;2022-07-23T11:55:56;25.80;99.90
18876;DHT22;9570;50.854;13.778;2022-07-23T11:58:27;25.60;99.90
18876;DHT22;9570;50.854;13.778;2022-07-23T12:00:55;25.50;99.90
18876;DHT22;9570;50.854;13.778;2022-07-23T12:03:20;25.40;99.90
18876;DHT22;9570;50.854;13.778;2022-07-23T12:05:46;25.30;99.90
18876;DHT22;9570;50.854;13.778;2022-07-23T12:08:12;25.30;99.90
18876;DHT22;9570;50.854;13.778;2022-07-23T12:10:43;25.30;99.90
18876;DHT22;9570;50.854;13.778;2022-07-23T12:13:14;25.40;99.90
18876;DHT22;9570;50.854;13.778;2022-07-23T12:15:43;25.20;99.90
18876;DHT22;9570;50.854;13.778;2022-07-23T12:18:11;25.10;99.90
18876;DHT22;9570;50.854;13.778;2022-07-23T12:20:42;25.00;99.90
18876;DHT22;9570;50.854;13.778;2022-07-23T12:23:10;24.90;99.90
18876;DHT22;9570;50.854;13.778;2022-07-23T12:25:39;24.90;99.90
18876;DHT22;9570;50.854;13.778;2022-07-23T12:30:44;24.80;99.90
18876;DHT22;9570;50.854;13.778;2022-07-23T12:33:13;24.60;99.90
18876;DHT22;9570;50.854;13.778;2022-07-23T12:35:44;24.50;99.90
18876;DHT22;9570;50.854;13.778;2022-07-23T12:38:13;24.40;99.90
18876;DHT22;9570;50.854;13.778;2022-07-23T12:40:46;24.40;99.90
18876;DHT22;9570;50.854;13.778;2022-07-23T12:43:31;24.20;99.90
18876;DHT22;9570;50.854;13.778;2022-07-23T12:46:17;24.00;99.90
18876;DHT22;9570;50.854;13.778;2022-07-23T12:51:16;23.70;99.90
18876;DHT22;9570;50.854;13.778;2022-07-23T12:53:54;23.60;99.90
18876;DHT22;9570;50.854;13.778;2022-07-23T12:56:26;23.50;99.90
18876;DHT22;9570;50.854;13.778;2022-07-23T12:58:57;23.40;99.90
18876;DHT22;9570;50.854;13.778;2022-07-23T13:04:09;23.30;99.90
18876;DHT22;9570;50.854;13.778;2022-07-23T13:06:36;23.40;99.90
18876;DHT22;9570;50.854;13.778;2022-07-23T13:09:04;23.50;99.90
18876;DHT22;9570;50.854;13.778;2022-07-23T13:11:31;23.70;99.90
18876;DHT22;9570;50.854;13.778;2022-07-23T13:13:56;23.90;99.90
18876;DHT22;9570;50.854;13.778;2022-07-23T13:16:22;24.00;99.90
18876;DHT22;9570;50.854;13.778;2022-07-23T13:18:47;24.00;99.90
18876;DHT22;9570;50.854;13.778;2022-07-23T13:21:13;23.90;99.90
18876;DHT22;9570;50.854;13.778;2022-07-23T13:23:38;23.70;99.90
18876;DHT22;9570;50.854;13.778;2022-07-23T13:26:04;23.60;99.90
18876;DHT22;9570;50.854;13.778;2022-07-23T13:28:30;23.60;99.90
18876;DHT22;9570;50.854;13.778;2022-07-23T13:30:56;23.60;99.90
18876;DHT22;9570;50.854;13.778;2022-07-23T13:33:23;23.60;99.90
18876;DHT22;9570;50.854;13.778;2022-07-23T13:35:50;23.60;99.90
18876;DHT22;9570;50.854;13.778;2022-07-23T13:38:16;23.70;99.90
18876;DHT22;9570;50.854;13.778;2022-07-23T13:40:44;23.60;99.90
18876;DHT22;9570;50.854;13.778;2022-07-23T13:43:11;23.60;99.90
18876;DHT22;9570;50.854;13.778;2022-07-23T13:45:38;23.40;99.90
18876;DHT22;9570;50.854;13.778;2022-07-23T13:48:04;23.50;99.90
18876;DHT22;9570;50.854;13.778;2022-07-23T13:50:30;23.60;99.90
18876;DHT22;9570;50.854;13.778;2022-07-23T13:52:55;23.70;99.90
18876;DHT22;9570;50.854;13.778;2022-07-23T13:55:21;23.70;99.90
18876;DHT22;9570;50.854;13.778;2022-07-23T13:57:47;23.60;99.90
18876;DHT22;9570;50.854;13.778;2022-07-23T14:00:13;23.60;99.90
18876;DHT22;9570;50.854;13.778;2022-07-23T14:02:39;23.60;99.90
18876;DHT22;9570;50.854;13.778;2022-07-23T14:05:07;23.60;99.90
18876;DHT22;9570;50.854;13.778;2022-07-23T14:07:34;23.60;99.90
18876;DHT22;9570;50.854;13.778;2022-07-23T14:09:59;23.60;99.90
18876;DHT22;9570;50.854;13.778;2022-07-23T14:12:25;23.60;99.90
18876;DHT22;9570;50.854;13.778;2022-07-23T14:14:51;23.60;99.90
18876;DHT22;9570;50.854;13.778;2022-07-23T14:17:17;23.70;99.90
18876;DHT22;9570;50.854;13.778;2022-07-23T14:19:42;23.70;99.90
18876;DHT22;9570;50.854;13.778;2022-07-23T14:22:08;23.60;99.90
18876;DHT22;9570;50.854;13.778;2022-07-23T14:24:33;23.50;99.90
18876;DHT22;9570;50.854;13.778;2022-07-23T14:27:00;23.50;99.90
18876;DHT22;9570;50.854;13.778;2022-07-23T14:29:27;23.40;99.90
18876;DHT22;9570;50.854;13.778;2022-07-23T14:31:52;23.30;99.90
18876;DHT22;9570;50.854;13.778;2022-07-23T14:34:18;23.20;99.90
18876;DHT22;9570;50.854;13.778;2022-07-23T14:36:43;23.10;99.90
18876;DHT22;9570;50.854;13.778;2022-07-23T14:39:09;23.10;99.90
18876;DHT22;9570;50.854;13.778;2022-07-23T14:41:35;23.00;99.90
18876;DHT22;9570;50.854;13.778;2022-07-23T14:44:01;23.00;99.90
18876;DHT22;9570;50.854;13.778;2022-07-23T14:46:27;22.90;99.90
18876;DHT22;9570;50.854;13.778;2022-07-23T14:48:52;23.00;99.90
18876;DHT22;9570;50.854;13.778;2022-07-23T14:51:18;23.10;99.90
18876;DHT22;9570;50.854;13.778;2022-07-23T14:53:43;23.20;99.90
18876;DHT22;9570;50.854;13.778;2022-07-23T14:56:09;23.20;99.90
18876;DHT22;9570;50.854;13.778;2022-07-23T14:58:35;23.20;99.90
18876;DHT22;9570;50.854;13.778;2022-07-23T15:01:00;23.30;99.90
18876;DHT22;9570;50.854;13.778;2022-07-23T15:03:26;23.30;99.90
18876;DHT22;9570;50.854;13.778;2022-07-23T15:05:51;23.50;99.90
18876;DHT22;9570;50.854;13.778;2022-07-23T15:08:17;23.60;99.90
18876;DHT22;9570;50.854;13.778;2022-07-23T15:10:43;23.70;99.90
18876;DHT22;9570;50.854;13.778;2022-07-23T15:13:08;23.70;99.90
18876;DHT22;9570;50.854;13.778;2022-07-23T15:15:34;23.70;99.90
18876;DHT22;9570;50.854;13.778;2022-07-23T15:17:59;23.60;99.90
18876;DHT22;9570;50.854;13.778;2022-07-23T15:20:25;23.60;99.90
18876;DHT22;9570;50.854;13.778;2022-07-23T15:22:50;23.60;99.90
18876;DHT22;9570;50.854;13.778;2022-07-23T15:25:16;23.60;99.90
18876;DHT22;9570;50.854;13.778;2022-07-23T15:27:41;23.50;99.90
18876;DHT22;9570;50.854;13.778;2022-07-23T15:30:07;23.50;99.90
18876;DHT22;9570;50.854;13.778;2022-07-23T15:32:33;23.50;99.90
18876;DHT22;9570;50.854;13.778;2022-07-23T15:34:58;23.50;99.90
18876;DHT22;9570;50.854;13.778;2022-07-23T15:37:24;23.60;99.90
18876;DHT22;9570;50.854;13.778;2022-07-23T15:39:50;23.60;99.90
18876;DHT22;9570;50.854;13.778;2022-07-23T15:42:16;23.60;99.90
18876;DHT22;9570;50.854;13.778;2022-07-23T15:44:42;23.50;99.90
18876;DHT22;9570;50.854;13.778;2022-07-23T15:47:14;23.40;99.90
18876;DHT22;9570;50.854;13.778;2022-07-23T15:49:39;23.30;99.90
18876;DHT22;9570;50.854;13.778;2022-07-23T15:52:05;23.30;99.90
18876;DHT22;9570;50.854;13.778;2022-07-23T15:54:31;23.30;99.90
18876;DHT22;9570;50.854;13.778;2022-07-23T15:56:56;23.30;99.90
18876;DHT22;9570;50.854;13.778;2022-07-23T15:59:22;23.20;99.90
18876;DHT22;9570;50.854;13.778;2022-07-23T16:01:47;23.30;99.90
18876;DHT22;9570;50.854;13.778;2022-07-23T16:04:13;23.30;99.90
18876;DHT22;9570;50.854;13.778;2022-07-23T16:06:38;23.40;99.90
18876;DHT22;9570;50.854;13.778;2022-07-23T16:09:07;23.50;99.90